createdAt,value
2023-06-15T00:00:11.510Z,9.711680
2023-06-15T00:01:11.488Z,9.711839
2023-06-15T00:02:12.237Z,9.711620
2023-06-15T00:03:13.258Z,9.711765
2023-06-15T00:04:11.521Z,9.711782
2023-06-15T00:05:11.510Z,9.711843
2023-06-15T00:06:13.216Z,9.711925
2023-06-15T00:07:11.389Z,9.711884
2023-06-15T00:08:11.383Z,9.711576
2023-06-15T00:09:11.356Z,9.711637
2023-06-15T00:10:11.356Z,9.711877
2023-06-15T00:11:11.357Z,9.711966
2023-06-15T00:12:11.349Z,9.711898
2023-06-15T00:13:11.338Z,9.711863
2023-06-15T00:14:11.335Z,9.711928
2023-06-15T00:15:11.324Z,9.711789
2023-06-15T00:16:12.129Z,9.711680
2023-06-15T00:17:11.287Z,9.711669
2023-06-15T00:18:11.345Z,9.711649
2023-06-15T00:32:47.090Z,9.711523
2023-06-15T00:33:47.081Z,9.711534
2023-06-15T00:34:45.348Z,9.711578
2023-06-15T00:35:45.359Z,9.711588
2023-06-15T00:36:45.353Z,9.711545
2023-06-15T00:37:45.384Z,9.711514
2023-06-15T00:38:46.011Z,9.711569
2023-06-15T00:39:45.342Z,9.711536
2023-06-15T00:40:45.303Z,9.711585
2023-06-15T00:41:45.301Z,9.711594
2023-06-15T00:42:45.279Z,9.711572
2023-06-15T00:43:45.277Z,9.711645
2023-06-15T00:44:45.277Z,9.711528
2023-06-15T00:45:45.270Z,9.711592
2023-06-15T00:46:45.269Z,9.711595
2023-06-15T00:47:45.321Z,9.711526
2023-06-15T00:48:45.249Z,9.711559
2023-06-15T00:49:45.228Z,9.711572
2023-06-15T00:50:47.543Z,9.711654
2023-06-15T00:51:45.218Z,9.711589
2023-06-15T00:52:46.205Z,9.711564
2023-06-15T00:53:46.008Z,9.711583
2023-06-15T00:54:45.205Z,9.711592
2023-06-15T00:55:45.936Z,9.711569
2023-06-15T00:56:45.172Z,9.711621
2023-06-15T00:57:45.222Z,9.711589
2023-06-15T00:58:45.148Z,9.711618
2023-06-15T00:59:45.143Z,9.711616
2023-06-15T01:00:45.159Z,9.711567
2023-06-15T01:01:45.156Z,9.711584
2023-06-15T01:02:45.169Z,9.711572
2023-06-15T01:03:45.121Z,9.711620
2023-06-15T01:04:45.162Z,9.711635
2023-06-15T01:05:45.110Z,9.711628
2023-06-15T01:06:45.106Z,9.711622
2023-06-15T01:07:45.102Z,9.711658
2023-06-15T01:08:45.080Z,9.711576
2023-06-15T01:09:45.084Z,9.711580
2023-06-15T01:10:45.092Z,9.711612
2023-06-15T01:11:45.065Z,9.711594
2023-06-15T01:12:45.955Z,9.711600
2023-06-15T01:13:45.048Z,9.711632
2023-06-15T01:14:45.043Z,9.711682
2023-06-15T01:15:45.037Z,9.711637
2023-06-15T01:16:45.051Z,9.711612
2023-06-15T01:17:45.121Z,9.711635
2023-06-15T01:18:45.035Z,9.711559
2023-06-15T01:19:45.019Z,9.711541
2023-06-15T01:20:45.000Z,9.711609
2023-06-15T01:21:44.996Z,9.711558
2023-06-15T01:22:44.992Z,9.711563
2023-06-15T01:23:45.017Z,9.711621
2023-06-15T01:24:44.978Z,9.711637
2023-06-15T01:25:44.969Z,9.711551
2023-06-15T01:26:44.952Z,9.711556
2023-06-15T01:27:44.948Z,9.711581
2023-06-15T01:28:44.939Z,9.711737
2023-06-15T01:29:44.941Z,9.711558
2023-06-15T01:30:44.956Z,9.711597
2023-06-15T01:31:45.961Z,9.711488
2023-06-15T01:32:44.963Z,9.711530
2023-06-15T01:33:44.907Z,9.711601
2023-06-15T01:34:44.903Z,9.711808
2023-06-15T01:35:44.885Z,9.711710
2023-06-15T01:36:45.473Z,9.711484
2023-06-15T01:37:44.880Z,9.711531
2023-06-15T01:38:44.874Z,9.711770
2023-06-15T01:39:44.866Z,9.711737
2023-06-15T01:40:44.843Z,9.711705
2023-06-15T01:41:44.855Z,9.711721
2023-06-15T01:42:44.826Z,9.711718
2023-06-15T01:43:44.814Z,9.711641
2023-06-15T01:44:44.820Z,9.711740
2023-06-15T01:45:44.801Z,9.711776
2023-06-15T01:46:44.851Z,9.711733
2023-06-15T01:47:44.839Z,9.711766
2023-06-15T01:48:44.778Z,9.711670
2023-06-15T01:49:44.775Z,9.711474
2023-06-15T01:50:44.799Z,9.711427
2023-06-15T01:51:44.796Z,9.711514
2023-06-15T01:52:45.735Z,9.711733
2023-06-15T01:53:44.754Z,9.711740
2023-06-15T01:54:44.725Z,9.711653
2023-06-15T01:55:44.726Z,9.711680
2023-06-15T01:56:44.708Z,9.711645
2023-06-15T01:57:44.706Z,9.711587
2023-06-15T01:58:45.529Z,9.711520
2023-06-15T01:59:44.691Z,9.711547
2023-06-15T02:00:44.711Z,9.711601
2023-06-15T02:01:44.689Z,9.711666
2023-06-15T02:02:44.719Z,9.711583
2023-06-15T02:03:44.658Z,9.711562
2023-06-15T02:04:44.670Z,9.711542
2023-06-15T02:05:46.538Z,9.711564
2023-06-15T02:06:47.518Z,9.711636
2023-06-15T02:07:44.640Z,9.711652
2023-06-15T02:08:44.618Z,9.711573
2023-06-15T02:09:44.611Z,9.711535
2023-06-15T02:10:44.607Z,9.711558
2023-06-15T02:11:44.615Z,9.711555
2023-06-15T02:12:44.585Z,9.711539
2023-06-15T02:13:44.602Z,9.711553
2023-06-15T02:14:44.627Z,9.711543
2023-06-15T02:15:44.553Z,9.711540
2023-06-15T02:16:45.555Z,9.711602
2023-06-15T02:17:44.570Z,9.711645
2023-06-15T02:18:45.545Z,9.711634
2023-06-15T02:19:45.484Z,9.711608
2023-06-15T02:20:44.841Z,9.711621
2023-06-15T02:21:44.526Z,9.711563
2023-06-15T02:22:44.524Z,9.711572
2023-06-15T02:23:44.543Z,9.711874
2023-06-15T02:24:44.580Z,9.711726
2023-06-15T02:25:44.460Z,9.711621
2023-06-15T02:26:44.473Z,9.711732
2023-06-15T02:27:44.478Z,9.711729
2023-06-15T02:28:44.465Z,9.711552
2023-06-15T02:29:45.956Z,9.711737
2023-06-15T02:30:44.435Z,9.711839
2023-06-15T02:31:44.422Z,9.711642
2023-06-15T02:32:44.442Z,9.711739
2023-06-15T02:33:44.453Z,9.711916
2023-06-15T02:34:44.432Z,9.711602
2023-06-15T02:35:45.057Z,9.711677
2023-06-15T02:36:44.988Z,9.711810
2023-06-15T02:37:44.949Z,9.711678
2023-06-15T02:38:44.367Z,9.711531
2023-06-15T02:39:44.345Z,9.711531
2023-06-15T02:40:44.354Z,9.711518
2023-06-15T02:41:44.375Z,9.711596
2023-06-15T02:42:44.347Z,9.711580
2023-06-15T02:43:44.961Z,9.711692
2023-06-15T02:44:44.378Z,9.711765
2023-06-15T02:45:45.062Z,9.711699
2023-06-15T02:46:45.037Z,9.711961
2023-06-15T02:47:45.366Z,9.711800
2023-06-15T02:48:44.290Z,9.711680
2023-06-15T02:49:44.308Z,9.711720
2023-06-15T02:50:44.278Z,9.711627
2023-06-15T02:51:44.268Z,9.711792
2023-06-15T02:52:44.251Z,9.711453
2023-06-15T02:53:46.070Z,9.711582
2023-06-15T02:54:44.239Z,9.711615
2023-06-15T02:55:44.224Z,9.711683
2023-06-15T02:56:44.231Z,9.711638
2023-06-15T02:57:45.959Z,9.711791
2023-06-15T02:58:44.215Z,9.711910
2023-06-15T02:59:44.195Z,9.711803
2023-06-15T03:00:44.178Z,9.711695
2023-06-15T03:01:44.190Z,9.711587
2023-06-15T03:02:44.346Z,9.711596
2023-06-15T03:03:44.171Z,9.711635
2023-06-15T03:04:44.157Z,9.711588
2023-06-15T03:05:44.158Z,9.711667
2023-06-15T03:06:45.988Z,9.711681
2023-06-15T03:07:46.044Z,9.711661
2023-06-15T03:08:44.129Z,9.711729
2023-06-15T03:09:44.133Z,9.711780
2023-06-15T03:10:44.555Z,9.711680
2023-06-15T03:11:45.046Z,9.711607
2023-06-15T03:12:44.112Z,9.711623
2023-06-15T03:13:44.097Z,9.711640
2023-06-15T03:14:44.079Z,9.711823
2023-06-15T03:15:44.088Z,9.711739
2023-06-15T03:16:44.079Z,9.711774
2023-06-15T03:17:44.084Z,9.711687
2023-06-15T03:18:44.033Z,9.711676
2023-06-15T03:19:44.040Z,9.711672
2023-06-15T03:20:44.076Z,9.711691
2023-06-15T03:21:44.031Z,9.711661
2023-06-15T03:22:44.031Z,9.711559
2023-06-15T03:23:44.065Z,9.711522
2023-06-15T03:24:44.019Z,9.711711
2023-06-15T03:25:43.990Z,9.711717
2023-06-15T03:26:44.026Z,9.711886
2023-06-15T03:27:44.981Z,9.711817
2023-06-15T03:28:44.560Z,9.711602
2023-06-15T03:29:43.970Z,9.711674
2023-06-15T03:30:43.966Z,9.711693
2023-06-15T03:31:43.974Z,9.711758
2023-06-15T03:32:43.988Z,9.711642
2023-06-15T03:33:43.929Z,9.711594
2023-06-15T03:34:47.009Z,9.711667
2023-06-15T03:35:43.910Z,9.711717
2023-06-15T03:36:43.900Z,9.711770
2023-06-15T03:37:44.903Z,9.711722
2023-06-15T03:38:43.869Z,9.711681
2023-06-15T03:39:43.898Z,9.711692
2023-06-15T03:40:44.485Z,9.711731
2023-06-15T03:41:43.859Z,9.711629
2023-06-15T03:42:43.888Z,9.711913
2023-06-15T03:43:43.841Z,9.711822
2023-06-15T03:44:43.848Z,9.711713
2023-06-15T03:45:43.842Z,9.711831
2023-06-15T03:46:43.819Z,9.711802
2023-06-15T03:47:43.895Z,9.711696
2023-06-15T03:48:43.833Z,9.711742
2023-06-15T03:49:43.813Z,9.711684
2023-06-15T03:50:43.837Z,9.711656
2023-06-15T03:51:43.813Z,9.711976
2023-06-15T03:52:43.807Z,9.711934
2023-06-15T03:53:44.486Z,9.711945
2023-06-15T03:54:43.763Z,9.711937
2023-06-15T03:55:43.766Z,9.711857
2023-06-15T03:56:43.755Z,9.711875
2023-06-15T03:57:43.723Z,9.711744
2023-06-15T03:58:43.784Z,9.711784
2023-06-15T03:59:43.717Z,9.711806
2023-06-15T04:00:43.752Z,9.711750
2023-06-15T04:01:43.697Z,9.711855
2023-06-15T04:02:43.722Z,9.711862
2023-06-15T04:03:43.791Z,9.711951
2023-06-15T04:04:43.724Z,9.711942
2023-06-15T04:05:43.694Z,9.711863
2023-06-15T04:06:43.692Z,9.711870
2023-06-15T04:07:43.659Z,9.711842
2023-06-15T04:08:43.644Z,9.711855
2023-06-15T04:09:44.475Z,9.711823
2023-06-15T04:10:44.571Z,9.711825
2023-06-15T04:11:43.618Z,9.711896
2023-06-15T04:12:43.612Z,9.711869
2023-06-15T04:13:43.602Z,9.711884
2023-06-15T04:14:43.981Z,9.711765
2023-06-15T04:15:43.608Z,9.711882
2023-06-15T04:16:43.594Z,9.711873
2023-06-15T04:17:43.680Z,9.712142
2023-06-15T04:18:43.560Z,9.712148
2023-06-15T04:19:43.586Z,9.712070
2023-06-15T04:20:43.548Z,9.712062
2023-06-15T04:21:43.557Z,9.712287
2023-06-15T04:22:43.553Z,9.712280
2023-06-15T04:23:43.622Z,9.712199
2023-06-15T04:24:43.529Z,9.712128
2023-06-15T04:25:43.509Z,9.712165
2023-06-15T04:26:43.536Z,9.712065
2023-06-15T04:27:43.486Z,9.712032
2023-06-15T04:28:43.498Z,9.712113
2023-06-15T04:29:43.476Z,9.712105
2023-06-15T04:30:43.483Z,9.712031
2023-06-15T04:31:43.518Z,9.712015
2023-06-15T04:32:44.146Z,9.711798
2023-06-15T04:33:43.802Z,9.711786
2023-06-15T04:34:43.453Z,9.711917
2023-06-15T04:35:43.432Z,9.711862
2023-06-15T04:36:44.050Z,9.712086
2023-06-15T04:37:43.425Z,9.711999
2023-06-15T04:38:43.448Z,9.712002
2023-06-15T04:39:43.407Z,9.711941
2023-06-15T04:40:43.426Z,9.712043
2023-06-15T04:41:43.392Z,9.712025
2023-06-15T04:42:43.393Z,9.712126
2023-06-15T04:43:43.409Z,9.712153
2023-06-15T04:44:43.394Z,9.712222
2023-06-15T04:45:43.376Z,9.712185
2023-06-15T04:46:43.363Z,9.712278
2023-06-15T04:47:43.429Z,9.712276
2023-06-15T04:48:43.329Z,9.712188
2023-06-15T04:49:43.365Z,9.712111
2023-06-15T04:50:43.327Z,9.712076
2023-06-15T04:51:43.328Z,9.712034
2023-06-15T04:52:43.309Z,9.712094
2023-06-15T04:53:43.315Z,9.712045
2023-06-15T04:54:44.085Z,9.712040
2023-06-15T04:55:43.290Z,9.712086
2023-06-15T04:56:44.034Z,9.712124
2023-06-15T04:57:43.281Z,9.712036
2023-06-15T04:58:43.284Z,9.712040
2023-06-15T04:59:43.261Z,9.712056
2023-06-15T05:00:43.254Z,9.712049
2023-06-15T05:01:43.244Z,9.711942
2023-06-15T05:02:43.386Z,9.711926
2023-06-15T05:03:43.262Z,9.711875
2023-06-15T05:04:43.247Z,9.711785
2023-06-15T05:05:43.220Z,9.711972
2023-06-15T05:06:43.220Z,9.711786
2023-06-15T05:07:43.197Z,9.711837
2023-06-15T05:08:43.196Z,9.711780
2023-06-15T05:09:43.305Z,9.711729
2023-06-15T05:10:46.502Z,9.711717
2023-06-15T05:11:44.175Z,9.711724
2023-06-15T05:12:44.011Z,9.711798
2023-06-15T05:13:43.167Z,9.711881
2023-06-15T05:14:43.185Z,9.711983
2023-06-15T05:15:44.050Z,9.711925
2023-06-15T05:16:43.129Z,9.711946
2023-06-15T05:17:43.159Z,9.711683
2023-06-15T05:18:43.118Z,9.711723
2023-06-15T05:19:43.132Z,9.711775
2023-06-15T05:20:45.052Z,9.711749
2023-06-15T05:21:43.081Z,9.711752
2023-06-15T05:22:43.122Z,9.711845
2023-06-15T05:23:43.185Z,9.711804
2023-06-15T05:24:43.068Z,9.711969
2023-06-15T05:25:43.078Z,9.711926
2023-06-15T05:26:43.041Z,9.711877
2023-06-15T05:27:43.047Z,9.711899
2023-06-15T05:28:44.689Z,9.711819
2023-06-15T05:29:44.015Z,9.711748
2023-06-15T05:30:43.035Z,9.711735
2023-06-15T05:31:43.066Z,9.711757
2023-06-15T05:32:43.060Z,9.711733
2023-06-15T05:33:43.003Z,9.711667
2023-06-15T05:34:42.995Z,9.711585
2023-06-15T05:35:43.030Z,9.711741
2023-06-15T05:36:55.724Z,9.711769
2023-06-15T05:37:44.995Z,9.711837
2023-06-15T05:38:42.966Z,9.711986
2023-06-15T05:39:42.966Z,9.712008
2023-06-15T05:40:42.947Z,9.711937
2023-06-15T05:41:43.807Z,9.711962
2023-06-15T05:42:45.528Z,9.711591
2023-06-15T05:43:44.610Z,9.711850
2023-06-15T05:44:43.597Z,9.711670
2023-06-15T05:45:42.932Z,9.711925
2023-06-15T05:46:42.914Z,9.711925
2023-06-15T05:48:16.548Z,9.712258
2023-06-15T05:48:43.608Z,9.712156
2023-06-15T05:49:42.896Z,9.712083
2023-06-15T05:50:42.911Z,9.711866
2023-06-15T05:51:42.873Z,9.711870
2023-06-15T05:52:48.071Z,9.711811
2023-06-15T05:53:42.876Z,9.711838
2023-06-15T05:54:42.856Z,9.711699
2023-06-15T05:55:42.848Z,9.711631
2023-06-15T05:56:42.858Z,9.711816
2023-06-15T05:57:42.830Z,9.711658
2023-06-15T05:58:42.814Z,9.711695
2023-06-15T05:59:42.812Z,9.711580
2023-06-15T06:00:42.864Z,9.711577
2023-06-15T06:01:43.512Z,9.711601
2023-06-15T06:02:42.975Z,9.711425
2023-06-15T06:03:42.786Z,9.711428
2023-06-15T06:04:42.791Z,9.711802
2023-06-15T06:05:42.784Z,9.711472
2023-06-15T06:06:42.837Z,9.711349
2023-06-15T06:07:43.561Z,9.711746
2023-06-15T06:08:42.748Z,9.711811
2023-06-15T06:09:42.753Z,9.711622
2023-06-15T06:10:43.643Z,9.711620
2023-06-15T06:11:42.736Z,9.711638
2023-06-15T06:12:42.736Z,9.711685
2023-06-15T06:13:42.728Z,9.711740
2023-06-15T06:14:42.719Z,9.711819
2023-06-15T06:15:42.698Z,9.711898
2023-06-15T06:16:42.717Z,9.712226
2023-06-15T06:17:59.361Z,9.712209
2023-06-15T06:18:44.715Z,9.711729
2023-06-15T06:19:44.554Z,9.711448
2023-06-15T06:20:44.693Z,9.711283
2023-06-15T06:21:42.683Z,9.711181
2023-06-15T06:22:43.654Z,9.711461
2023-06-15T06:23:42.711Z,9.711465
2023-06-15T06:24:42.781Z,9.711670
2023-06-15T06:25:42.673Z,9.711830
2023-06-15T06:26:42.657Z,9.711941
2023-06-15T06:27:42.621Z,9.711997
2023-06-15T06:28:42.597Z,9.711854
2023-06-15T06:29:43.678Z,9.711953
2023-06-15T06:30:42.590Z,9.711824
2023-06-15T06:31:42.594Z,9.711772
2023-06-15T06:32:42.606Z,9.711919
2023-06-15T06:33:43.139Z,9.712205
2023-06-15T06:34:42.578Z,9.712193
2023-06-15T06:35:42.567Z,9.712210
2023-06-15T06:36:42.587Z,9.712026
2023-06-15T06:37:42.574Z,9.712100
2023-06-15T06:38:53.374Z,9.712440
2023-06-15T06:39:44.601Z,9.712315
2023-06-15T06:40:42.530Z,9.711987
2023-06-15T06:41:42.520Z,9.711980
2023-06-15T06:42:43.090Z,9.712090
2023-06-15T06:43:43.174Z,9.712155
2023-06-15T06:44:42.503Z,9.712070
2023-06-15T06:45:43.593Z,9.712073
2023-06-15T06:46:42.500Z,9.712045
2023-06-15T06:47:42.541Z,9.712221
2023-06-15T06:48:43.081Z,9.711997
2023-06-15T06:49:42.480Z,9.712161
2023-06-15T06:50:42.476Z,9.712090
2023-06-15T06:51:42.489Z,9.711828
2023-06-15T06:52:42.547Z,9.711690
2023-06-15T06:53:42.433Z,9.711706
2023-06-15T06:54:42.452Z,9.711648
2023-06-15T06:55:42.438Z,9.711626
2023-06-15T06:56:42.478Z,9.711665
2023-06-15T06:57:42.431Z,9.711686
2023-06-15T06:58:42.414Z,9.711621
2023-06-15T06:59:44.302Z,9.711520
2023-06-15T07:00:44.175Z,9.711473
2023-06-15T07:01:44.360Z,9.711635
2023-06-15T07:02:42.519Z,9.711583
2023-06-15T07:03:42.479Z,9.711620
2023-06-15T07:11:50.294Z,9.711645
2023-06-15T07:12:50.306Z,9.711721
2023-06-15T07:13:50.294Z,9.711783
2023-06-15T07:14:50.261Z,9.711932
2023-06-15T07:15:50.295Z,9.711905
2023-06-15T07:16:50.358Z,9.711907
2023-06-15T07:17:50.279Z,9.711984
2023-06-15T07:18:50.234Z,9.711979
2023-06-15T07:19:50.236Z,9.711856
2023-06-15T07:20:50.289Z,9.711689
2023-06-15T07:21:50.265Z,9.711695
2023-06-15T07:22:50.214Z,9.711657
2023-06-15T07:23:54.433Z,9.711668
2023-06-15T07:24:53.234Z,9.711698
2023-06-15T07:25:52.188Z,9.711699
2023-06-15T07:26:50.185Z,9.711699
2023-06-15T07:27:50.191Z,9.711761
2023-06-15T07:28:51.184Z,9.711717
2023-06-15T07:29:50.201Z,9.711694
2023-06-15T07:30:50.152Z,9.711746
2023-06-15T07:31:50.210Z,9.711720
2023-06-15T07:32:50.246Z,9.711670
2023-06-15T07:33:50.149Z,9.711707
2023-06-15T07:34:52.121Z,9.711714
2023-06-15T07:35:50.137Z,9.711755
2023-06-15T07:36:50.154Z,9.711782
2023-06-15T07:37:50.123Z,9.711729
2023-06-15T07:38:50.106Z,9.711736
2023-06-15T07:39:50.140Z,9.711700
2023-06-15T07:40:50.155Z,9.711671
2023-06-15T07:41:50.121Z,9.711675
2023-06-15T07:42:50.074Z,9.711730
2023-06-15T07:43:50.066Z,9.711744
2023-06-15T07:44:50.073Z,9.711743
2023-06-15T07:45:50.725Z,9.711792
2023-06-15T07:46:50.616Z,9.711796
2023-06-15T07:47:50.075Z,9.711768
2023-06-15T07:48:50.040Z,9.711694
2023-06-15T07:49:50.026Z,9.711703
2023-06-15T07:50:50.268Z,9.711613
2023-06-15T07:51:58.869Z,9.711610
2023-06-15T07:52:52.024Z,9.711601
2023-06-15T07:53:49.997Z,9.711697
2023-06-15T07:54:50.238Z,9.711717
2023-06-15T07:55:49.987Z,9.711797
2023-06-15T07:56:49.970Z,9.711818
2023-06-15T07:57:49.963Z,9.711525
2023-06-15T07:58:51.732Z,9.711630
2023-06-15T07:59:50.609Z,9.711873
2023-06-15T08:00:49.975Z,9.712080
2023-06-15T08:01:49.949Z,9.712098
2023-06-15T08:02:51.747Z,9.712039
2023-06-15T08:03:49.973Z,9.711863
2023-06-15T08:04:49.918Z,9.711736
2023-06-15T08:05:51.741Z,9.711763
2023-06-15T08:11:59.804Z,9.711711
2023-06-15T08:13:00.051Z,9.711681
2023-06-15T08:13:59.042Z,9.711662
2023-06-15T08:14:59.046Z,9.711620
2023-06-15T08:15:59.047Z,9.711657
2023-06-15T08:16:59.034Z,9.711775
2023-06-15T08:17:59.083Z,9.711823
2023-06-15T08:18:59.022Z,9.711737
2023-06-15T08:19:59.011Z,9.711865
2023-06-15T08:20:59.004Z,9.711586
2023-06-15T08:21:58.983Z,9.711657
2023-06-15T08:22:58.982Z,9.711561
2023-06-15T08:23:59.007Z,9.711864
2023-06-15T08:24:58.999Z,9.711721
2023-06-15T08:25:59.020Z,9.711727
2023-06-15T08:26:58.962Z,9.711809
2023-06-15T08:27:58.959Z,9.712120
2023-06-15T08:29:59.946Z,9.712595
2023-06-15T08:30:58.913Z,9.712529
2023-06-15T08:31:59.916Z,9.712256
2023-06-15T08:32:58.974Z,9.711996
2023-06-15T08:33:58.990Z,9.712133
2023-06-15T08:34:58.895Z,9.712022
2023-06-15T08:35:58.874Z,9.711934
2023-06-15T08:36:58.905Z,9.712261
2023-06-15T08:37:59.461Z,9.712097
2023-06-15T08:38:58.869Z,9.711884
2023-06-15T08:40:58.855Z,9.712217
2023-06-15T08:41:58.973Z,9.712137
2023-06-15T08:42:58.869Z,9.712051
2023-06-15T08:43:58.827Z,9.712121
2023-06-15T08:45:00.448Z,9.711936
2023-06-15T08:45:59.375Z,9.711753
2023-06-15T08:46:58.808Z,9.711595
2023-06-15T08:47:59.810Z,9.711643
2023-06-15T08:49:00.440Z,9.711719
2023-06-15T08:49:58.784Z,9.711896
2023-06-15T08:50:58.754Z,9.711864
2023-06-15T08:52:00.392Z,9.712111
2023-06-15T08:52:58.740Z,9.711936
2023-06-15T08:53:59.385Z,9.711793
2023-06-15T08:55:00.374Z,9.711774
2023-06-15T08:55:59.395Z,9.712036
2023-06-15T08:56:58.728Z,9.711814
2023-06-15T08:57:58.698Z,9.711854
2023-06-15T08:58:58.707Z,9.711898
2023-06-15T08:59:58.705Z,9.711639
2023-06-15T09:00:59.681Z,9.711901
2023-06-15T09:01:59.440Z,9.711746
2023-06-15T09:02:58.759Z,9.711665
2023-06-15T09:08:06.613Z,9.711745
2023-06-15T09:09:06.656Z,9.711686
2023-06-15T09:10:06.601Z,9.711597
2023-06-15T09:11:06.634Z,9.711720
2023-06-15T09:12:06.615Z,9.711740
2023-06-15T09:13:06.584Z,9.711701
2023-06-15T09:14:06.567Z,9.711904
2023-06-15T09:15:06.550Z,9.711618
2023-06-15T09:16:06.548Z,9.711854
2023-06-15T09:17:07.914Z,9.711854
2023-06-15T09:18:07.624Z,9.711827
2023-06-15T09:19:06.527Z,9.711637
2023-06-15T09:20:06.540Z,9.711630
2023-06-15T09:21:07.512Z,9.711695
2023-06-15T09:22:06.492Z,9.711753
2023-06-15T09:23:06.561Z,9.711732
2023-06-15T09:24:06.537Z,9.711710
2023-06-15T09:25:06.504Z,9.711706
2023-06-15T09:26:07.386Z,9.711525
2023-06-15T09:27:07.420Z,9.711767
2023-06-15T09:37:13.803Z,9.710283
2023-06-15T09:38:13.790Z,9.710008
2023-06-15T09:39:15.661Z,9.710238
2023-06-15T09:40:13.784Z,9.711619
2023-06-15T09:41:13.789Z,9.711646
2023-06-15T09:42:13.761Z,9.711661
2023-06-15T09:43:13.768Z,9.711675
2023-06-15T09:44:13.743Z,9.711692
2023-06-15T09:45:15.604Z,9.711599
2023-06-15T09:46:13.775Z,9.711679
2023-06-15T09:47:17.604Z,9.711696
2023-06-15T09:48:14.237Z,9.711735
2023-06-15T09:49:15.609Z,9.711714
2023-06-15T09:50:13.683Z,9.711780
2023-06-15T09:51:13.699Z,9.711779
2023-06-15T09:52:15.598Z,9.711744
2023-06-15T09:53:15.622Z,9.711727
2023-06-15T09:54:13.673Z,9.711784
2023-06-15T09:55:13.665Z,9.711871
2023-06-15T09:56:28.638Z,9.711783
2023-06-15T09:57:15.652Z,9.711766
2023-06-15T09:58:13.625Z,9.711759
2023-06-15T09:59:13.634Z,9.711726
2023-06-15T10:00:13.616Z,9.711656
2023-06-15T10:01:15.208Z,9.711757
2023-06-15T10:02:13.640Z,9.711692
2023-06-15T10:03:13.606Z,9.711730
2023-06-15T10:04:13.643Z,9.711724
2023-06-15T10:05:13.604Z,9.711681
2023-06-15T10:06:13.602Z,9.711691
2023-06-15T10:07:13.596Z,9.711660
2023-06-15T10:08:14.557Z,9.711561
2023-06-15T10:09:13.552Z,9.711666
2023-06-15T10:10:14.248Z,9.711647
2023-06-15T10:11:13.568Z,9.711625
2023-06-15T10:12:14.212Z,9.711659
2023-06-15T10:13:13.523Z,9.711626
2023-06-15T10:14:13.496Z,9.711641
2023-06-15T10:15:15.224Z,9.711646
2023-06-15T10:16:13.484Z,9.711688
2023-06-15T10:17:15.146Z,9.711647
2023-06-15T10:18:13.568Z,9.711577
2023-06-15T10:19:13.496Z,9.711461
2023-06-15T10:20:13.531Z,9.711540
2023-06-15T10:21:13.442Z,9.711600
2023-06-15T10:22:13.469Z,9.711527
2023-06-15T10:23:13.434Z,9.711632
2023-06-15T10:24:13.497Z,9.711602
2023-06-15T10:25:13.751Z,9.711722
2023-06-15T10:26:13.394Z,9.711586
2023-06-15T10:27:13.422Z,9.711444
2023-06-15T10:28:14.190Z,9.711520
2023-06-15T10:29:13.398Z,9.711520
2023-06-15T10:30:13.414Z,9.711493
2023-06-15T10:31:13.383Z,9.711470
2023-06-15T10:32:13.405Z,9.711716
2023-06-15T10:33:13.768Z,9.711542
2023-06-15T10:34:13.347Z,9.711645
2023-06-15T10:35:13.369Z,9.711668
2023-06-15T10:36:13.346Z,9.711624
2023-06-15T10:37:14.155Z,9.711503
2023-06-15T10:38:14.164Z,9.711488
2023-06-15T10:39:13.321Z,9.711560
2023-06-15T10:40:13.765Z,9.711642
2023-06-15T10:41:13.311Z,9.711738
2023-06-15T10:42:13.732Z,9.711823
2023-06-15T10:43:13.296Z,9.711898
2023-06-15T10:44:13.299Z,9.711848
2023-06-15T10:45:13.263Z,9.711786
2023-06-15T10:46:13.286Z,9.711451
2023-06-15T10:47:15.633Z,9.711612
2023-06-15T10:48:14.126Z,9.711681
2023-06-15T10:49:13.240Z,9.711849
2023-06-15T10:50:13.271Z,9.712234
2023-06-15T10:51:14.136Z,9.712253
2023-06-15T10:52:14.244Z,9.712161
2023-06-15T10:55:22.073Z,9.711738
2023-06-15T10:56:22.197Z,9.711738
2023-06-15T10:57:22.086Z,9.711695
2023-06-15T10:58:22.059Z,9.711662
2023-06-15T10:59:22.056Z,9.711716
2023-06-15T11:00:22.121Z,9.711705
2023-06-15T11:01:22.616Z,9.711717
2023-06-15T11:02:23.872Z,9.711821
2023-06-15T11:03:22.876Z,9.711761
2023-06-15T11:04:22.082Z,9.711800
2023-06-15T11:05:22.032Z,9.711766
2023-06-15T11:06:22.998Z,9.711785
2023-06-15T11:07:22.005Z,9.711775
2023-06-15T11:08:22.463Z,9.711739
2023-06-15T11:09:21.985Z,9.711723
2023-06-15T11:10:22.070Z,9.711750
2023-06-15T11:11:22.049Z,9.711748
2023-06-15T11:12:22.016Z,9.711760
2023-06-15T11:13:21.950Z,9.711730
2023-06-15T11:14:21.956Z,9.711711
2023-06-15T11:15:21.936Z,9.711802
2023-06-15T11:16:21.936Z,9.711806
2023-06-15T11:17:23.504Z,9.711801
2023-06-15T11:18:23.439Z,9.711759
2023-06-15T11:19:23.869Z,9.711744
2023-06-15T11:20:21.891Z,9.711718
2023-06-15T11:21:21.889Z,9.711705
2023-06-15T11:22:21.978Z,9.711661
2023-06-15T11:23:21.889Z,9.711695
2023-06-15T11:24:21.950Z,9.711786
2023-06-15T11:25:23.371Z,9.711793
2023-06-15T11:26:21.853Z,9.711722
2023-06-15T11:27:21.833Z,9.711719
2023-06-15T11:28:35.065Z,9.711732
2023-06-15T11:29:23.868Z,9.711746
2023-06-15T11:30:21.825Z,9.711700
2023-06-15T11:31:21.839Z,9.711499
2023-06-15T11:32:21.892Z,9.711612
2023-06-15T11:33:21.847Z,9.711712
2023-06-15T11:34:21.786Z,9.711583
2023-06-15T11:35:21.779Z,9.711686
2023-06-15T11:36:23.367Z,9.711634
2023-06-15T11:37:23.371Z,9.711810
2023-06-15T11:38:23.409Z,9.711668
2023-06-15T11:39:23.467Z,9.711698
2023-06-15T11:40:21.751Z,9.711660
2023-06-15T11:41:21.743Z,9.711698
2023-06-15T11:42:22.452Z,9.711769
2023-06-15T11:43:21.723Z,9.711889
2023-06-15T11:44:21.725Z,9.712063
2023-06-15T11:45:21.746Z,9.712050
2023-06-15T11:46:21.706Z,9.711887
2023-06-15T11:47:21.763Z,9.711768
2023-06-15T11:48:21.679Z,9.711783
2023-06-15T11:49:21.662Z,9.711884
2023-06-15T11:50:21.666Z,9.711899
2023-06-15T11:51:21.685Z,9.711881
2023-06-15T11:52:21.707Z,9.711877
2023-06-15T11:53:21.633Z,9.712061
2023-06-15T11:54:23.436Z,9.712036
2023-06-15T11:55:21.652Z,9.712123
2023-06-15T11:56:21.619Z,9.712236
2023-06-15T11:57:24.472Z,9.712170
2023-06-15T11:58:21.589Z,9.712084
2023-06-15T11:59:21.573Z,9.711996
2023-06-15T12:00:21.590Z,9.711631
2023-06-15T12:01:21.652Z,9.711535
2023-06-15T12:02:21.589Z,9.711744
2023-06-15T12:03:21.571Z,9.711769
2023-06-15T12:04:21.574Z,9.711790
2023-06-15T12:05:21.581Z,9.711744
2023-06-15T12:06:21.551Z,9.711724
2023-06-15T12:07:32.633Z,9.711689
2023-06-15T12:08:23.523Z,9.711683
2023-06-15T12:09:21.532Z,9.711716
2023-06-15T12:10:21.504Z,9.711702
2023-06-15T12:11:21.493Z,9.711702
2023-06-15T12:12:21.513Z,9.711708
2023-06-15T12:13:21.501Z,9.711701
2023-06-15T12:14:21.491Z,9.711761
2023-06-15T12:15:21.501Z,9.711727
2023-06-15T12:16:21.492Z,9.711701
2023-06-15T12:17:21.511Z,9.711641
2023-06-15T12:18:21.438Z,9.711618
2023-06-15T12:19:23.434Z,9.711669
2023-06-15T12:20:21.503Z,9.711653
2023-06-15T12:21:23.179Z,9.711643
2023-06-15T12:22:33.117Z,9.711589
2023-06-15T12:23:22.403Z,9.711614
2023-06-15T12:24:23.989Z,9.711672
2023-06-15T12:25:22.939Z,9.711662
2023-06-15T12:26:21.378Z,9.711648
2023-06-15T12:27:21.388Z,9.711637